Time;durP1;ratioP1;P1;durP2;ratioP2;P2;SDS_P1;SDS_P2;PMS_P1;PMS_P2;Temp;Humidity;BMP_temperature;BMP_pressure;BME280_temperature;BME280_humidity;BME280_pressure;Samples;Min_cycle;Max_cycle;Signal;HPM_P1;HPM_P2
2020/12/30 00:01:01;;;;;;;9.32;4.07;;;5.40;91.90;;;;;;5013139;28;20017;-76
2020/12/30 00:03:27;;;;;;;13.85;5.60;;;5.40;91.90;;;;;;5030459;28;20515;-82
2020/12/30 00:05:53;;;;;;;14.95;5.57;;;5.40;91.90;;;;;;5032493;28;20513;-75
2020/12/30 00:08:18;;;;;;;20.65;5.68;;;5.30;91.90;;;;;;5034275;28;20462;-75
2020/12/30 00:10:45;;;;;;;15.68;5.47;;;5.30;92.20;;;;;;5016099;28;20021;-76
2020/12/30 00:13:11;;;;;;;9.90;5.10;;;5.30;91.90;;;;;;5016462;28;20013;-75
2020/12/30 00:15:37;;;;;;;11.38;4.18;;;5.30;91.90;;;;;;5034623;28;20017;-75
2020/12/30 00:18:03;;;;;;;13.77;4.93;;;5.20;91.90;;;;;;5017230;28;20021;-75
2020/12/30 00:20:28;;;;;;;16.85;5.15;;;5.30;91.90;;;;;;5016829;28;20497;-83
2020/12/30 00:22:54;;;;;;;13.38;5.05;;;5.20;91.90;;;;;;5034512;28;20021;-75
2020/12/30 00:25:19;;;;;;;15.13;5.63;;;5.20;91.90;;;;;;5034478;28;20018;-75
2020/12/30 00:27:45;;;;;;;11.63;5.45;;;5.20;91.90;;;;;;5034577;28;20116;-75
2020/12/30 00:30:13;;;;;;;15.30;6.03;;;5.20;91.80;;;;;;5034743;28;20489;-75
2020/12/30 00:32:43;;;;;;;14.15;5.70;;;5.10;91.80;;;;;;5034219;28;20013;-75
2020/12/30 00:35:09;;;;;;;11.77;5.55;;;5.10;91.90;;;;;;5034782;28;20032;-75
2020/12/30 00:37:35;;;;;;;14.43;5.90;;;5.10;91.90;;;;;;5034062;28;20021;-76
2020/12/30 00:40:01;;;;;;;13.80;5.88;;;5.00;91.90;;;;;;5013164;28;20096;-75
2020/12/30 00:42:31;;;;;;;11.95;5.10;;;5.00;91.90;;;;;;5014790;28;20097;-75
2020/12/30 00:44:58;;;;;;;15.60;5.93;;;5.00;91.80;;;;;;5014602;28;20026;-75
2020/12/30 00:47:24;;;;;;;10.80;4.82;;;4.90;91.60;;;;;;5015053;28;20068;-76
2020/12/30 00:49:50;;;;;;;12.95;6.28;;;4.90;91.80;;;;;;5012754;28;20563;-75
2020/12/30 00:52:15;;;;;;;9.63;4.53;;;4.80;91.70;;;;;;5014327;28;20022;-75
2020/12/30 00:54:41;;;;;;;13.00;5.18;;;4.80;91.70;;;;;;5013961;28;20413;-76
2020/12/30 00:57:06;;;;;;;12.48;7.13;;;4.80;91.80;;;;;;5013451;28;20017;-75
2020/12/30 00:59:32;;;;;;;11.93;5.88;;;4.80;91.70;;;;;;5012592;28;20029;-76
2020/12/30 01:01:58;;;;;;;15.40;5.63;;;4.80;91.70;;;;;;5013015;28;20363;-75
2020/12/30 01:04:23;;;;;;;14.60;6.78;;;4.80;91.70;;;;;;5014348;28;20030;-75
2020/12/30 01:06:53;;;;;;;12.32;5.25;;;4.80;91.60;;;;;;5013398;28;20045;-75
2020/12/30 01:09:24;;;;;;;15.20;5.63;;;4.80;91.60;;;;;;5013014;28;20088;-75
2020/12/30 01:11:50;;;;;;;11.68;5.43;;;4.80;91.60;;;;;;5013701;28;20021;-75
2020/12/30 01:14:16;;;;;;;17.20;6.40;;;4.70;91.60;;;;;;5012822;28;20022;-75
2020/12/30 01:16:51;;;;;;;14.75;6.28;;;4.70;91.60;;;;;;5012780;28;20040;-75
2020/12/30 01:19:17;;;;;;;13.95;5.78;;;4.70;91.60;;;;;;5014582;28;20073;-76
2020/12/30 01:21:44;;;;;;;16.98;5.82;;;4.70;91.60;;;;;;5012174;28;20018;-75
2020/12/30 01:24:09;;;;;;;16.05;6.07;;;4.70;91.60;;;;;;5013602;28;20033;-75
2020/12/30 01:26:36;;;;;;;21.88;7.63;;;4.70;91.60;;;;;;5013373;28;20022;-76
2020/12/30 01:29:03;;;;;;;14.55;7.03;;;4.70;91.60;;;;;;5013888;28;20018;-75
2020/12/30 01:31:30;;;;;;;12.68;5.25;;;4.60;91.60;;;;;;5013776;28;20048;-75
2020/12/30 01:33:55;;;;;;;11.75;5.32;;;4.60;91.60;;;;;;5012973;28;20406;-75
2020/12/30 01:36:21;;;;;;;15.35;5.93;;;4.70;91.70;;;;;;5013404;28;20110;-75
2020/12/30 01:38:47;;;;;;;14.25;5.30;;;4.60;91.70;;;;;;5019352;28;20041;-75
2020/12/30 01:41:13;;;;;;;15.73;6.65;;;4.60;91.70;;;;;;5033075;28;20070;-75
2020/12/30 01:43:39;;;;;;;14.18;5.97;;;4.60;91.70;;;;;;5032757;28;20100;-76
2020/12/30 01:46:04;;;;;;;17.55;6.20;;;4.60;91.70;;;;;;5033001;28;20028;-74
2020/12/30 01:48:31;;;;;;;20.55;5.10;;;4.50;91.70;;;;;;5033323;28;20447;-74
2020/12/30 01:50:57;;;;;;;16.23;5.90;;;4.60;91.70;;;;;;5032762;28;20014;-74
2020/12/30 01:53:23;;;;;;;15.10;6.10;;;4.60;91.70;;;;;;5015437;28;20439;-74
2020/12/30 01:55:53;;;;;;;10.75;4.35;;;4.60;91.70;;;;;;5014681;28;20527;-74
2020/12/30 01:58:18;;;;;;;14.63;5.63;;;4.70;91.60;;;;;;5033221;28;20128;-74
2020/12/30 02:00:48;;;;;;;13.77;6.60;;;4.70;91.50;;;;;;5032917;28;20029;-74
2020/12/30 02:03:15;;;;;;;20.95;7.05;;;4.70;91.40;;;;;;5014786;28;20223;-74
2020/12/30 02:05:42;;;;;;;16.08;7.82;;;4.70;91.40;;;;;;5014734;28;20021;-74
2020/12/30 02:08:08;;;;;;;18.23;7.68;;;4.70;91.30;;;;;;5015168;28;20368;-74
2020/12/30 02:10:34;;;;;;;17.73;7.25;;;4.60;91.20;;;;;;5033004;28;20454;-75
2020/12/30 02:12:59;;;;;;;13.50;5.82;;;4.60;91.20;;;;;;5014536;28;20025;-74
2020/12/30 02:15:30;;;;;;;17.13;6.10;;;4.50;91.20;;;;;;5032785;28;20029;-74
2020/12/30 02:18:00;;;;;;;22.53;7.13;;;4.50;91.30;;;;;;5031844;28;20323;-74
2020/12/30 02:20:30;;;;;;;13.82;5.95;;;4.50;91.30;;;;;;5014765;28;20053;-74
2020/12/30 02:23:07;;;;;;;14.02;6.75;;;4.50;91.30;;;;;;5032140;28;20033;-73
2020/12/30 02:25:33;;;;;;;15.15;5.55;;;4.50;91.30;;;;;;5015057;28;20087;-74
2020/12/30 02:27:59;;;;;;;17.67;6.45;;;4.50;91.10;;;;;;5014143;28;20098;-74
2020/12/30 02:30:25;;;;;;;13.38;6.68;;;4.50;91.10;;;;;;5032972;28;20446;-73
2020/12/30 02:32:50;;;;;;;13.10;6.63;;;4.40;91.20;;;;;;5031919;28;20013;-74
2020/12/30 02:35:21;;;;;;;15.10;6.20;;;4.50;91.30;;;;;;5014412;28;20048;-74
2020/12/30 02:37:47;;;;;;;16.95;6.22;;;4.50;91.30;;;;;;5032401;28;20021;-74
2020/12/30 02:40:13;;;;;;;11.32;4.53;;;4.50;91.30;;;;;;5032591;28;20427;-74
2020/12/30 02:42:38;;;;;;;15.52;6.05;;;4.50;91.30;;;;;;5032223;28;20484;-74
2020/12/30 02:45:06;;;;;;;12.32;5.85;;;4.50;91.30;;;;;;5032255;28;20077;-74
2020/12/30 02:47:32;;;;;;;18.60;7.97;;;4.50;91.20;;;;;;5032366;28;20113;-74
2020/12/30 02:49:58;;;;;;;14.32;6.25;;;4.50;91.10;;;;;;5014203;28;20025;-75
2020/12/30 02:52:25;;;;;;;19.60;6.80;;;4.40;91.20;;;;;;5014496;28;20028;-74
2020/12/30 02:54:51;;;;;;;14.90;6.40;;;4.40;91.20;;;;;;5013763;28;20477;-74
2020/12/30 02:57:16;;;;;;;12.70;6.70;;;4.40;91.20;;;;;;5032055;28;20022;-73
2020/12/30 02:59:42;;;;;;;20.45;7.45;;;4.40;91.20;;;;;;5013792;28;20013;-73
2020/12/30 03:02:08;;;;;;;14.15;6.43;;;4.40;91.30;;;;;;5032746;28;20021;-73
2020/12/30 03:04:34;;;;;;;14.27;6.10;;;4.40;91.30;;;;;;5031964;28;20057;-73
2020/12/30 03:06:59;;;;;;;12.95;6.00;;;4.30;91.30;;;;;;5031316;28;20032;-76
2020/12/30 03:09:25;;;;;;;15.45;6.88;;;4.30;91.30;;;;;;5032162;28;20425;-74
2020/12/30 03:11:50;;;;;;;14.40;5.70;;;4.40;91.40;;;;;;5031565;28;20066;-74
2020/12/30 03:14:16;;;;;;;13.80;4.57;;;4.40;91.30;;;;;;5031891;28;20370;-74
2020/12/30 03:16:42;;;;;;;17.50;5.75;;;4.40;91.30;;;;;;5013824;28;20112;-82
2020/12/30 03:19:08;;;;;;;9.07;5.38;;;4.40;91.40;;;;;;5014336;28;20112;-73
2020/12/30 03:21:33;;;;;;;15.00;5.68;;;4.40;91.30;;;;;;5013961;28;20044;-74
2020/12/30 03:23:59;;;;;;;14.93;6.03;;;4.40;91.30;;;;;;5030599;28;20029;-77
2020/12/30 03:26:25;;;;;;;17.35;6.75;;;4.40;91.30;;;;;;5031381;28;20028;-74
2020/12/30 03:28:51;;;;;;;15.38;5.15;;;4.50;91.20;;;;;;5012892;28;20018;-74
2020/12/30 03:31:16;;;;;;;15.02;6.15;;;4.60;91.20;;;;;;5013392;28;20013;-73
2020/12/30 03:33:42;;;;;;;14.65;5.07;;;4.60;91.10;;;;;;5013027;28;20451;-82
2020/12/30 03:36:08;;;;;;;14.07;6.05;;;4.60;91.10;;;;;;5013945;28;20024;-75
2020/12/30 03:38:34;;;;;;;12.65;5.55;;;4.60;91.10;;;;;;5030106;28;20498;-74
2020/12/30 03:40:59;;;;;;;16.58;6.97;;;4.70;91.10;;;;;;5047479;28;20028;-75
2020/12/30 03:43:25;;;;;;;15.43;5.43;;;4.70;91.00;;;;;;5034630;28;20025;-75
2020/12/30 03:45:51;;;;;;;14.43;6.07;;;4.70;91.00;;;;;;5034290;28;20025;-75
2020/12/30 03:48:16;;;;;;;13.13;5.30;;;4.80;91.00;;;;;;5017202;28;20034;-75
2020/12/30 03:50:42;;;;;;;15.35;5.25;;;4.80;91.00;;;;;;5034719;28;20374;-82
2020/12/30 03:53:08;;;;;;;14.57;5.32;;;4.90;90.90;;;;;;5050765;28;20076;-74
2020/12/30 03:55:34;;;;;;;12.20;5.20;;;4.90;90.90;;;;;;5050710;28;20083;-74
2020/12/30 03:57:59;;;;;;;17.08;6.63;;;4.90;90.80;;;;;;5050128;28;20017;-74
2020/12/30 04:00:25;;;;;;;13.00;5.22;;;4.90;90.80;;;;;;5035448;28;20021;-74
2020/12/30 04:02:50;;;;;;;14.38;5.25;;;5.00;90.80;;;;;;5034544;28;20021;-76
2020/12/30 04:05:16;;;;;;;15.07;5.10;;;5.00;90.80;;;;;;5017559;28;20018;-74
2020/12/30 04:07:42;;;;;;;14.32;4.97;;;5.00;90.90;;;;;;5035113;28;20026;-74
2020/12/30 04:10:07;;;;;;;15.70;6.43;;;5.00;90.90;;;;;;5016573;28;20481;-74
2020/12/30 04:12:33;;;;;;;18.33;5.75;;;4.90;90.80;;;;;;5050630;28;20029;-74
2020/12/30 04:14:59;;;;;;;15.73;5.28;;;5.00;90.80;;;;;;5034549;28;20025;-74
2020/12/30 04:17:24;;;;;;;14.80;6.00;;;4.90;90.80;;;;;;5034945;28;20021;-74
2020/12/30 04:19:50;;;;;;;13.82;6.13;;;4.90;90.90;;;;;;5049664;28;20033;-74
2020/12/30 04:22:15;;;;;;;12.40;5.70;;;4.90;90.90;;;;;;5034916;28;20017;-74
2020/12/30 04:24:41;;;;;;;16.00;6.38;;;5.00;90.90;;;;;;5034757;28;20108;-74
2020/12/30 04:27:07;;;;;;;13.52;4.97;;;5.00;90.90;;;;;;5034049;28;20453;-74
2020/12/30 04:29:32;;;;;;;12.95;6.55;;;5.00;90.90;;;;;;5034781;28;20025;-74
2020/12/30 04:31:58;;;;;;;14.32;6.07;;;5.00;90.90;;;;;;5032869;28;20018;-74
2020/12/30 04:34:23;;;;;;;15.20;6.43;;;4.90;91.00;;;;;;5016638;28;20032;-74
2020/12/30 04:36:49;;;;;;;12.80;5.63;;;4.80;91.00;;;;;;5033813;28;20026;-74
2020/12/30 04:39:15;;;;;;;15.90;5.88;;;4.80;91.10;;;;;;5049437;28;20508;-74
2020/12/30 04:41:44;;;;;;;20.70;5.45;;;4.80;91.40;;;;;;5016845;28;20477;-74
2020/12/30 04:44:12;;;;;;;20.27;6.32;;;4.80;91.20;;;;;;5034050;28;20038;-73
2020/12/30 04:46:39;;;;;;;16.80;6.35;;;4.80;91.20;;;;;;5034522;28;20032;-74
2020/12/30 04:49:05;;;;;;;14.43;6.03;;;4.80;91.20;;;;;;5016239;28;20018;-74
2020/12/30 04:51:31;;;;;;;13.65;6.65;;;4.80;91.20;;;;;;5034170;28;20413;-74
2020/12/30 04:53:59;;;;;;;12.38;6.18;;;4.80;91.10;;;;;;5033961;28;20029;-74
2020/12/30 04:56:55;;;;;;;16.52;6.63;;;4.90;91.10;;;;;;5034574;28;20025;-74
2020/12/30 04:59:22;;;;;;;15.00;6.20;;;4.90;91.00;;;;;;5034445;28;20029;-74
2020/12/30 05:01:59;;;;;;;14.55;5.50;;;4.90;91.00;;;;;;5034004;28;20014;-82
2020/12/30 05:04:26;;;;;;;17.98;5.97;;;4.90;91.00;;;;;;5033886;28;20033;-74
2020/12/30 05:06:52;;;;;;;16.00;6.22;;;4.90;91.00;;;;;;5033907;28;20026;-75
2020/12/30 05:09:20;;;;;;;14.98;5.50;;;5.00;91.10;;;;;;5016378;28;20021;-74
2020/12/30 05:11:45;;;;;;;11.15;5.43;;;5.00;91.10;;;;;;5034060;28;20473;-74
2020/12/30 05:14:11;;;;;;;16.38;5.78;;;5.00;91.00;;;;;;5048696;28;20021;-74
2020/12/30 05:16:36;;;;;;;12.45;6.57;;;5.00;91.10;;;;;;5033925;28;20419;-74
2020/12/30 05:19:05;;;;;;;15.68;6.32;;;5.00;91.10;;;;;;5033364;28;20117;-74
2020/12/30 05:21:31;;;;;;;12.13;5.22;;;5.00;91.10;;;;;;5049360;28;20018;-74
2020/12/30 05:23:58;;;;;;;16.17;6.05;;;5.00;91.10;;;;;;5033212;28;20454;-74
2020/12/30 05:26:24;;;;;;;14.50;5.10;;;5.00;91.10;;;;;;5033696;28;20021;-74
2020/12/30 05:28:52;;;;;;;13.45;5.03;;;5.00;91.10;;;;;;5033517;28;20029;-82
2020/12/30 05:31:17;;;;;;;12.20;5.40;;;5.00;91.10;;;;;;5033833;28;20021;-74
2020/12/30 05:33:43;;;;;;;15.32;6.25;;;5.00;91.10;;;;;;5015750;28;20026;-74
2020/12/30 05:36:10;;;;;;;16.85;6.13;;;5.00;91.10;;;;;;5032958;28;20021;-74
2020/12/30 05:38:36;;;;;;;19.25;6.47;;;5.00;91.10;;;;;;5015534;28;20454;-74
2020/12/30 05:41:02;;;;;;;13.07;5.28;;;5.10;91.10;;;;;;5032958;28;20014;-74
2020/12/30 05:43:28;;;;;;;16.13;6.03;;;5.10;91.10;;;;;;5033280;28;20076;-74
2020/12/30 05:45:54;;;;;;;13.43;5.10;;;5.10;91.00;;;;;;5032407;28;20041;-74
2020/12/30 05:48:21;;;;;;;16.13;6.38;;;5.20;91.00;;;;;;5015624;28;20096;-74
2020/12/30 05:50:54;;;;;;;13.32;5.45;;;5.20;91.00;;;;;;5033289;28;20362;-74
2020/12/30 05:53:21;;;;;;;15.05;5.93;;;5.20;91.00;;;;;;5031809;28;20235;-74
2020/12/30 05:55:50;;;;;;;11.50;5.32;;;5.20;91.00;;;;;;5033093;28;20021;-74
2020/12/30 05:58:17;;;;;;;14.02;5.15;;;5.20;91.00;;;;;;5032457;28;20525;-75
2020/12/30 06:00:44;;;;;;;13.27;5.25;;;5.20;91.00;;;;;;5032945;28;20097;-73
2020/12/30 06:03:13;;;;;;;12.60;5.40;;;5.10;91.10;;;;;;5031985;28;20113;-74
2020/12/30 06:05:39;;;;;;;18.48;7.90;;;5.10;91.10;;;;;;5015164;28;20370;-74
2020/12/30 06:08:05;;;;;;;17.88;6.70;;;5.10;91.10;;;;;;5014386;28;20029;-74
2020/12/30 06:10:32;;;;;;;19.48;7.80;;;5.00;91.10;;;;;;5015222;28;20108;-73
2020/12/30 06:12:59;;;;;;;11.40;6.05;;;5.00;91.20;;;;;;5030920;28;20365;-73
2020/12/30 06:15:32;;;;;;;15.35;6.07;;;5.00;91.20;;;;;;5032819;28;20025;-73
2020/12/30 06:18:04;;;;;;;16.23;6.80;;;5.10;91.20;;;;;;5030625;28;20013;-74
2020/12/30 06:20:33;;;;;;;;;;;5.10;91.20;;;;;;5032354;28;20025;-74
2020/12/30 06:23:15;;;;;;;14.23;5.35;;;5.00;91.10;;;;;;5032155;28;19931;-74
2020/12/30 06:25:45;;;;;;;14.35;6.38;;;5.10;91.20;;;;;;5032423;28;20371;-74
2020/12/30 06:28:13;;;;;;;14.60;5.90;;;5.00;91.20;;;;;;5032039;28;20029;-74
2020/12/30 06:30:41;;;;;;;19.02;6.97;;;5.00;91.20;;;;;;5032153;28;20447;-75
2020/12/30 06:33:08;;;;;;;15.15;5.03;;;5.00;91.20;;;;;;5031836;28;20018;-74
2020/12/30 06:35:36;;;;;;;15.32;6.55;;;5.00;91.20;;;;;;5014809;28;20047;-74
2020/12/30 06:38:21;;;;;;;16.58;6.40;;;5.00;91.20;;;;;;5013992;28;20084;-76
2020/12/30 06:40:56;;;;;;;11.68;6.68;;;5.10;91.20;;;;;;5032571;28;20096;-74
2020/12/30 06:43:50;;;;;;;15.57;6.43;;;5.10;91.20;;;;;;5032676;28;20519;-73
2020/12/30 06:46:21;;;;;;;17.17;6.35;;;5.10;91.10;;;;;;5031828;28;20238;-74
2020/12/30 06:48:54;;;;;;;;;;;5.20;91.10;;;;;;5015099;28;20017;-74
2020/12/30 06:51:20;;;;;;;15.45;7.05;;;5.10;91.10;;;;;;5046422;28;19905;-75
2020/12/30 06:53:55;;;;;;;9.73;5.30;;;5.10;91.10;;;;;;5032234;28;20025;-74
2020/12/30 06:56:44;;;;;;;16.42;6.75;;;5.20;91.10;;;;;;5014036;28;20024;-74
2020/12/30 06:59:25;;;;;;;9.80;4.50;;;5.20;91.10;;;;;;5013947;28;20029;-76
2020/12/30 07:02:00;;;;;;;15.17;6.20;;;5.20;91.10;;;;;;5014444;28;20473;-75
2020/12/30 07:04:28;;;;;;;13.23;5.80;;;5.20;91.10;;;;;;5013912;28;20070;-75
2020/12/30 07:06:54;;;;;;;14.75;5.80;;;5.30;91.10;;;;;;5032068;28;20100;-75
2020/12/30 07:09:38;;;;;;;11.52;5.07;;;5.30;91.10;;;;;;5013405;28;20021;-74
2020/12/30 07:12:05;;;;;;;17.63;6.22;;;5.30;91.10;;;;;;5031416;28;20530;-74
2020/12/30 07:14:33;;;;;;;13.70;5.55;;;5.30;91.30;;;;;;5014160;28;20397;-73
2020/12/30 07:17:04;;;;;;;13.75;5.90;;;5.30;91.10;;;;;;5035230;28;20031;-83
2020/12/30 07:19:37;;;;;;;16.30;5.93;;;5.20;91.20;;;;;;5018280;28;20344;-75
2020/12/30 07:22:25;;;;;;;17.88;5.68;;;5.30;91.20;;;;;;5035034;28;20060;-74
2020/12/30 07:24:55;;;;;;;12.05;5.43;;;5.30;91.10;;;;;;5018119;28;20026;-74
2020/12/30 07:27:22;;;;;;;14.45;6.70;;;5.30;91.10;;;;;;5035240;28;20025;-74
2020/12/30 07:29:48;;;;;;;15.00;6.47;;;5.30;91.10;;;;;;5035652;28;20033;-74
2020/12/30 07:32:15;;;;;;;13.65;6.57;;;5.30;91.10;;;;;;5035109;28;20469;-74
2020/12/30 07:34:46;;;;;;;14.15;6.13;;;5.30;91.10;;;;;;5036206;28;20108;-75
2020/12/30 07:37:13;;;;;;;12.57;4.97;;;5.30;91.10;;;;;;5017476;28;20041;-74
2020/12/30 07:39:41;;;;;;;11.13;4.95;;;5.30;91.10;;;;;;5035363;28;20490;-75
2020/12/30 07:42:11;;;;;;;14.43;6.25;;;5.30;91.10;;;;;;5017350;28;20052;-75
2020/12/30 07:44:43;;;;;;;17.48;6.55;;;5.30;91.10;;;;;;5035450;28;20028;-74
2020/12/30 07:47:08;;;;;;;12.57;4.60;;;5.40;91.10;;;;;;5035087;28;20108;-75
2020/12/30 07:49:34;;;;;;;11.35;5.75;;;5.30;91.10;;;;;;5018115;28;20112;-75
2020/12/30 07:52:02;;;;;;;18.17;7.40;;;5.40;91.10;;;;;;5035598;28;20049;-74
2020/12/30 07:54:28;;;;;;;11.30;5.40;;;5.40;91.10;;;;;;5017876;28;20343;-73
2020/12/30 07:57:04;;;;;;;13.95;5.75;;;5.40;91.10;;;;;;5035322;28;20057;-73
2020/12/30 07:59:31;;;;;;;10.90;4.85;;;5.40;91.10;;;;;;5035417;28;20044;-74
2020/12/30 08:01:58;;;;;;;13.90;5.57;;;5.40;91.10;;;;;;5034909;28;20432;-74
2020/12/30 08:04:25;;;;;;;13.48;5.50;;;5.40;91.00;;;;;;5034528;28;20017;-74
2020/12/30 08:06:51;;;;;;;14.35;5.55;;;5.40;91.00;;;;;;5017525;28;20108;-74
2020/12/30 08:09:17;;;;;;;14.02;6.82;;;5.40;91.10;;;;;;5034313;28;20164;-74
2020/12/30 08:11:50;;;;;;;16.77;6.07;;;5.30;91.10;;;;;;5016997;28;20029;-74
2020/12/30 08:14:16;;;;;;;14.90;5.88;;;5.30;91.20;;;;;;5016524;28;20024;-74
2020/12/30 08:17:15;;;;;;;12.15;4.47;;;5.30;91.30;;;;;;5017286;28;20374;-74
2020/12/30 08:19:48;;;;;;;10.05;4.50;;;5.30;91.40;;;;;;5001743;28;20609;-74
2020/12/30 08:22:20;;;;;;;10.73;4.78;;;5.30;91.40;;;;;;5034505;28;20013;-75
2020/12/30 08:24:47;;;;;;;13.98;5.82;;;5.30;91.40;;;;;;5017299;28;20021;-74
2020/12/30 08:27:16;;;;;;;13.10;5.00;;;5.30;91.50;;;;;;5015959;28;20028;-74
2020/12/30 08:29:44;;;;;;;14.57;6.15;;;5.30;91.50;;;;;;5017053;28;20026;-74
2020/12/30 08:32:21;;;;;;;11.82;5.30;;;5.30;91.60;;;;;;5033915;28;20473;-74
2020/12/30 08:35:30;;;;;;;14.90;5.35;;;5.30;91.50;;;;;;5016826;28;20112;-73
2020/12/30 08:38:16;;;;;;;9.50;4.72;;;5.30;91.50;;;;;;5034637;28;20067;-74
2020/12/30 08:40:42;;;;;;;12.02;5.13;;;5.30;91.60;;;;;;5016635;28;20094;-73
2020/12/30 08:43:11;;;;;;;10.02;5.30;;;5.30;91.60;;;;;;5033562;28;20075;-74
2020/12/30 08:45:48;;;;;;;15.93;6.88;;;5.30;91.70;;;;;;5034423;28;20446;-74
2020/12/30 08:48:21;;;;;;;12.43;5.65;;;5.20;91.70;;;;;;5015815;28;20056;-74
2020/12/30 08:50:48;;;;;;;11.80;6.35;;;5.20;91.80;;;;;;5034513;28;20017;-74
2020/12/30 08:53:13;;;;;;;11.98;4.78;;;5.20;91.80;;;;;;5016276;28;20021;-73
2020/12/30 08:55:40;;;;;;;17.63;6.57;;;5.30;91.80;;;;;;5034505;28;20363;-74
2020/12/30 08:58:06;;;;;;;14.20;5.53;;;5.30;91.80;;;;;;5016622;28;20414;-80
2020/12/30 09:00:36;;;;;;;16.08;6.47;;;5.30;91.80;;;;;;5035060;28;20033;-74
2020/12/30 09:03:13;;;;;;;10.35;5.65;;;5.40;91.80;;;;;;5017621;28;20029;-74
2020/12/30 09:05:39;;;;;;;14.27;6.88;;;5.40;91.80;;;;;;5016859;28;20405;-74
2020/12/30 09:08:11;;;;;;;14.45;6.05;;;5.40;91.80;;;;;;5033855;28;20029;-74
2020/12/30 09:10:37;;;;;;;15.57;5.55;;;5.40;91.80;;;;;;5016110;28;20064;-74
2020/12/30 09:13:14;;;;;;;12.88;6.05;;;5.40;91.70;;;;;;5033833;28;20025;-73
2020/12/30 09:15:40;;;;;;;15.50;6.57;;;5.50;91.70;;;;;;5034132;28;20041;-74
2020/12/30 09:18:07;;;;;;;12.77;6.00;;;5.50;91.80;;;;;;5034152;28;20026;-74
2020/12/30 09:20:33;;;;;;;13.07;6.38;;;5.40;91.80;;;;;;5016001;28;20028;-76
2020/12/30 09:23:03;;;;;;;18.13;6.05;;;5.40;91.80;;;;;;5033684;28;20489;-73
2020/12/30 09:25:31;;;;;;;15.90;6.07;;;5.40;91.80;;;;;;5033025;28;20025;-73
2020/12/30 09:27:58;;;;;;;12.98;5.63;;;5.50;91.90;;;;;;5033615;28;20064;-73
2020/12/30 09:30:26;;;;;;;14.52;6.32;;;5.50;91.80;;;;;;5032951;28;20090;-75
2020/12/30 09:32:54;;;;;;;15.60;6.25;;;5.50;91.80;;;;;;5033837;28;20469;-75
2020/12/30 09:35:28;;;;;;;16.08;6.13;;;5.60;91.80;;;;;;5033265;28;20024;-75
2020/12/30 09:37:56;;;;;;;19.33;7.55;;;5.60;91.80;;;;;;5015071;28;20021;-75
2020/12/30 09:40:23;;;;;;;12.25;5.78;;;5.60;91.80;;;;;;5032863;28;20038;-75
2020/12/30 09:42:48;;;;;;;19.25;6.32;;;5.60;91.70;;;;;;5033404;28;20087;-73
2020/12/30 09:45:18;;;;;;;18.65;7.32;;;5.60;91.70;;;;;;5032482;28;20026;-76
2020/12/30 09:47:44;;;;;;;16.02;5.85;;;5.70;91.80;;;;;;5032917;28;20496;-75
2020/12/30 09:50:12;;;;;;;17.02;6.35;;;5.70;91.80;;;;;;5032405;28;20025;-80
2020/12/30 09:52:43;;;;;;;13.90;6.00;;;5.70;91.70;;;;;;5033221;28;20026;-73
2020/12/30 09:55:10;;;;;;;12.65;5.45;;;5.80;91.70;;;;;;5015459;28;20036;-73
2020/12/30 09:57:37;;;;;;;14.45;6.85;;;5.80;91.70;;;;;;5033260;28;20017;-73
2020/12/30 10:00:07;;;;;;;15.85;5.95;;;5.80;91.70;;;;;;5033019;28;20021;-74
2020/12/30 10:02:32;;;;;;;15.20;6.70;;;5.80;91.70;;;;;;5032392;28;20024;-75
2020/12/30 10:04:58;;;;;;;14.75;5.75;;;5.80;91.70;;;;;;5014975;28;20029;-75
2020/12/30 10:07:25;;;;;;;18.08;5.78;;;5.80;91.70;;;;;;5032212;28;20021;-75
2020/12/30 10:09:52;;;;;;;18.00;6.00;;;5.90;91.70;;;;;;5032840;28;20063;-75
2020/12/30 10:12:21;;;;;;;18.55;6.50;;;5.90;91.70;;;;;;5032325;28;20462;-75
2020/12/30 10:14:47;;;;;;;15.23;6.25;;;5.90;91.70;;;;;;5032523;28;20126;-73
2020/12/30 10:17:13;;;;;;;13.23;5.78;;;5.90;91.70;;;;;;5014620;28;20104;-76
2020/12/30 10:19:38;;;;;;;13.75;5.30;;;5.90;91.70;;;;;;5032983;28;20394;-74
2020/12/30 10:22:09;;;;;;;16.75;6.25;;;5.90;91.70;;;;;;5015011;28;20125;-73
2020/12/30 10:24:36;;;;;;;13.27;5.90;;;5.90;91.60;;;;;;5031954;28;20104;-73
2020/12/30 10:27:02;;;;;;;16.58;6.28;;;5.90;91.60;;;;;;5014859;28;20022;-75
2020/12/30 10:29:33;;;;;;;15.18;5.97;;;5.90;91.70;;;;;;5031704;28;20026;-75
2020/12/30 10:31:59;;;;;;;10.50;5.75;;;5.90;91.70;;;;;;5014654;28;20013;-75
2020/12/30 10:34:25;;;;;;;13.90;6.38;;;6.00;91.70;;;;;;5014054;28;20351;-74
2020/12/30 10:36:51;;;;;;;18.42;7.82;;;6.00;91.70;;;;;;5014767;28;20025;-73
2020/12/30 10:39:17;;;;;;;16.83;7.63;;;6.00;91.60;;;;;;5031714;28;20147;-74
2020/12/30 10:41:43;;;;;;;14.05;5.95;;;6.00;91.90;;;;;;5031984;28;20041;-74
2020/12/30 10:44:09;;;;;;;13.05;5.63;;;6.00;91.70;;;;;;5032159;28;20082;-73
2020/12/30 10:46:34;;;;;;;20.40;6.15;;;6.00;91.70;;;;;;5031739;28;20264;-74
2020/12/30 10:49:01;;;;;;;16.40;6.95;;;6.00;91.70;;;;;;5014272;28;20373;-74
2020/12/30 10:51:26;;;;;;;14.32;5.95;;;6.00;91.70;;;;;;5031199;28;20052;-74
2020/12/30 10:53:52;;;;;;;13.20;5.68;;;6.00;91.70;;;;;;5031756;28;20061;-74
2020/12/30 10:56:18;;;;;;;17.10;6.63;;;6.00;91.70;;;;;;5031520;28;20108;-74
2020/12/30 10:58:43;;;;;;;15.98;6.53;;;6.10;91.70;;;;;;5032109;28;20021;-74
2020/12/30 11:01:13;;;;;;;14.90;7.00;;;6.10;91.60;;;;;;5031935;28;20018;-74
2020/12/30 11:03:40;;;;;;;14.63;6.53;;;6.10;91.60;;;;;;5013765;28;20048;-74
2020/12/30 11:06:07;;;;;;;15.02;6.25;;;6.10;91.60;;;;;;5031700;28;20486;-74
2020/12/30 11:08:33;;;;;;;14.50;5.65;;;6.10;91.60;;;;;;5013702;28;20060;-74
2020/12/30 11:11:01;;;;;;;11.43;5.57;;;6.10;91.60;;;;;;5031877;28;20410;-74
2020/12/30 11:16:11;;;;;;;14.00;4.97;;;6.10;91.60;;;;;;5031993;28;20032;-74
2020/12/30 11:18:36;;;;;;;15.80;6.28;;;6.20;91.60;;;;;;5031227;28;20108;-74
2020/12/30 11:21:02;;;;;;;13.75;6.63;;;6.20;91.60;;;;;;5031892;28;20044;-74
2020/12/30 11:23:28;;;;;;;16.23;7.03;;;6.30;91.60;;;;;;5013087;28;20026;-74
2020/12/30 11:25:54;;;;;;;15.45;6.03;;;6.40;91.50;;;;;;5031642;28;20030;-74
2020/12/30 11:28:20;;;;;;;13.18;6.05;;;6.40;91.40;;;;;;5013508;28;20504;-75
2020/12/30 11:30:46;;;;;;;10.25;4.85;;;6.50;91.30;;;;;;5031817;28;20096;-74
2020/12/30 11:33:12;;;;;;;12.98;5.40;;;6.50;91.30;;;;;;5031887;28;20099;-74
2020/12/30 11:35:38;;;;;;;14.68;5.72;;;6.60;91.30;;;;;;5031113;28;20030;-74
2020/12/30 11:38:05;;;;;;;15.23;6.10;;;6.60;91.30;;;;;;5013709;28;20017;-74
2020/12/30 11:40:31;;;;;;;17.00;5.88;;;6.60;91.20;;;;;;5012811;28;20092;-74
2020/12/30 11:42:56;;;;;;;15.88;5.97;;;6.60;91.30;;;;;;5013871;28;20374;-74
2020/12/30 11:45:22;;;;;;;15.10;5.25;;;6.60;91.40;;;;;;5030598;28;20026;-75
2020/12/30 11:47:48;;;;;;;13.27;5.00;;;6.50;91.50;;;;;;5031653;28;20069;-75
2020/12/30 11:50:15;;;;;;;10.77;5.45;;;6.60;91.40;;;;;;5014177;28;20017;-74
2020/12/30 11:52:41;;;;;;;11.43;6.15;;;6.60;91.40;;;;;;5013644;28;20097;-74
2020/12/30 11:55:07;;;;;;;18.00;6.00;;;6.60;91.40;;;;;;5031635;28;20104;-74
2020/12/30 11:57:33;;;;;;;12.82;5.55;;;6.60;91.40;;;;;;5031015;28;20017;-74
2020/12/30 11:59:58;;;;;;;12.80;5.25;;;6.60;91.40;;;;;;5013705;28;20358;-74
2020/12/30 12:02:24;;;;;;;10.25;5.47;;;6.60;91.40;;;;;;5032957;28;20013;-74
2020/12/30 12:04:49;;;;;;;12.05;5.22;;;6.60;91.40;;;;;;5017562;28;20036;-74
2020/12/30 12:07:15;;;;;;;11.38;5.25;;;6.70;91.50;;;;;;5034978;28;20033;-75
2020/12/30 12:09:41;;;;;;;13.65;5.18;;;6.70;91.40;;;;;;5034430;28;20064;-74
2020/12/30 12:12:06;;;;;;;12.95;5.10;;;6.70;91.40;;;;;;5035140;28;20100;-76
2020/12/30 12:14:32;;;;;;;13.63;4.82;;;6.80;91.60;;;;;;5034516;28;20041;-73
2020/12/30 12:16:58;;;;;;;9.55;4.68;;;6.80;91.30;;;;;;5035330;28;20079;-74
2020/12/30 12:19:24;;;;;;;11.77;4.38;;;6.80;91.30;;;;;;5034338;28;20446;-74
2020/12/30 12:21:51;;;;;;;11.73;4.80;;;6.80;91.30;;;;;;5034649;28;20422;-74
2020/12/30 12:24:17;;;;;;;9.32;4.57;;;6.80;91.30;;;;;;5017111;28;20029;-74
2020/12/30 12:26:44;;;;;;;9.27;3.58;;;6.90;91.30;;;;;;5034284;28;20071;-74
2020/12/30 12:29:34;;;;;;;12.25;4.20;;;6.80;91.30;;;;;;5034506;28;20029;-74
2020/12/30 12:32:21;;;;;;;11.32;4.63;;;6.90;91.40;;;;;;5034736;28;20026;-74
2020/12/30 12:34:52;;;;;;;6.18;3.50;;;6.80;91.30;;;;;;5016929;28;20446;-74
2020/12/30 12:37:20;;;;;;;7.38;3.90;;;6.90;91.40;;;;;;5034702;28;20017;-74
2020/12/30 12:39:47;;;;;;;11.13;4.28;;;6.90;91.30;;;;;;5033744;28;20485;-74
2020/12/30 12:42:13;;;;;;;7.68;3.75;;;6.90;91.30;;;;;;5016864;28;20039;-74
2020/12/30 12:44:39;;;;;;;8.50;3.53;;;6.90;91.30;;;;;;5033840;28;20040;-74
2020/12/30 12:47:05;;;;;;;5.50;2.92;;;6.90;91.50;;;;;;5034423;28;20025;-74
2020/12/30 12:49:31;;;;;;;7.68;3.13;;;7.00;91.30;;;;;;5033877;28;20025;-74
2020/12/30 12:51:58;;;;;;;10.50;4.00;;;7.00;91.30;;;;;;5034371;28;20048;-74
2020/12/30 12:54:24;;;;;;;11.05;4.13;;;7.00;91.30;;;;;;5033759;28;20087;-81